Time,TemperatureF,DewpointF,PressureIn,WindDirection,WindDirectionDegrees,WindSpeedMPH,WindSpeedGustMPH,Humidity,HourlyPrecipIn,Conditions,Clouds,dailyrainin,SoftwareType,DateUTC
2013-06-18 00:01:00,69.8,65.5,29.25,SW,226,0.0,7.0,86,0.00,,,0.00,meteohub,2013-06-18 05:01:00,
2013-06-18 00:06:00,69.6,65.3,29.25,SW,234,3.0,7.0,86,0.00,,,0.00,meteohub,2013-06-18 05:06:00,
2013-06-18 00:12:00,69.4,65.1,29.25,SW,218,3.0,7.0,86,0.00,,,0.00,meteohub,2013-06-18 05:12:00,
2013-06-18 00:17:00,69.4,65.1,29.25,SW,225,5.0,7.0,86,0.00,,,0.00,meteohub,2013-06-18 05:17:00,
2013-06-18 00:22:00,69.3,64.9,29.25,WSW,244,0.0,6.0,86,0.00,,,0.00,meteohub,2013-06-18 05:22:00,
2013-06-18 00:27:00,69.3,64.9,29.25,SW,233,6.0,7.0,86,0.00,,,0.00,meteohub,2013-06-18 05:27:00,
2013-06-18 00:32:00,69.1,64.8,29.25,SW,223,0.0,7.0,86,0.00,,,0.00,meteohub,2013-06-18 05:32:00,
2013-06-18 00:37:00,69.1,65.1,29.25,WSW,238,1.0,7.0,87,0.00,,,0.00,meteohub,2013-06-18 05:37:00,
2013-06-18 00:42:00,68.7,64.8,29.25,SW,233,0.0,7.0,87,0.00,,,0.00,meteohub,2013-06-18 05:42:00,
2013-06-18 00:47:00,68.7,64.8,29.25,WSW,257,1.0,7.0,87,0.00,,,0.00,meteohub,2013-06-18 05:47:00,
2013-06-18 00:52:00,68.5,64.6,29.26,SW,231,0.0,7.0,87,0.00,,,0.00,meteohub,2013-06-18 05:52:00,
2013-06-18 00:57:00,68.5,64.6,29.26,WSW,237,0.0,7.0,87,0.00,,,0.00,meteohub,2013-06-18 05:57:00,
2013-06-18 01:02:00,68.4,64.6,29.26,WSW,238,2.0,7.0,88,0.00,,,0.00,meteohub,2013-06-18 06:02:00,
2013-06-18 01:07:00,68.2,64.4,29.26,SW,230,0.0,7.0,88,0.00,,,0.00,meteohub,2013-06-18 06:07:00,
2013-06-18 01:12:00,68.2,64.4,29.26,WSW,246,3.0,7.0,88,0.00,,,0.00,meteohub,2013-06-18 06:12:00,
2013-06-18 01:17:00,68.0,64.6,29.26,SW,236,3.0,6.0,89,0.00,,,0.00,meteohub,2013-06-18 06:17:00,
2013-06-18 01:22:00,68.0,64.6,29.26,SW,227,3.0,6.0,89,0.00,,,0.00,meteohub,2013-06-18 06:22:00,
2013-06-18 01:27:00,67.8,64.4,29.26,WSW,243,0.0,5.0,89,0.00,,,0.00,meteohub,2013-06-18 06:27:00,
2013-06-18 01:32:00,67.8,64.8,29.25,WSW,251,2.0,6.0,90,0.00,,,0.00,meteohub,2013-06-18 06:32:00,
2013-06-18 01:37:00,67.6,64.6,29.25,WSW,252,0.0,6.0,90,0.00,,,0.00,meteohub,2013-06-18 06:37:00,
2013-06-18 01:42:00,67.6,64.6,29.25,West,269,0.0,11.0,90,0.00,,,0.00,meteohub,2013-06-18 06:42:00,
2013-06-18 01:47:00,67.6,64.6,29.25,WSW,246,3.0,11.0,90,0.00,,,0.00,meteohub,2013-06-18 06:47:00,
2013-06-18 01:52:00,67.6,64.9,29.25,West,269,1.0,11.0,91,0.00,,,0.00,meteohub,2013-06-18 06:52:00,
2013-06-18 01:57:00,67.6,64.9,29.25,WSW,248,2.0,6.0,91,0.00,,,0.00,meteohub,2013-06-18 06:57:00,
2013-06-18 02:02:00,67.6,64.9,29.24,WSW,239,7.0,7.0,91,0.00,,,0.00,meteohub,2013-06-18 07:02:00,
2013-06-18 02:07:00,67.6,64.9,29.24,SW,229,5.0,8.0,91,0.00,,,0.00,meteohub,2013-06-18 07:07:00,
2013-06-18 02:12:00,67.6,64.9,29.24,WSW,248,5.0,8.0,91,0.00,,,0.00,meteohub,2013-06-18 07:12:00,
2013-06-18 02:17:00,67.6,64.9,29.24,WSW,242,5.0,8.0,91,0.00,,,0.00,meteohub,2013-06-18 07:17:00,
2013-06-18 02:22:00,67.6,65.3,29.24,SW,225,0.0,6.0,92,0.00,,,0.00,meteohub,2013-06-18 07:22:00,
2013-06-18 02:27:00,67.6,64.9,29.25,WSW,241,6.0,7.0,91,0.00,,,0.00,meteohub,2013-06-18 07:27:00,
2013-06-18 02:32:00,67.6,64.9,29.24,WSW,239,1.0,7.0,91,0.00,,,0.00,meteohub,2013-06-18 07:32:00,
2013-06-18 02:37:00,67.5,64.8,29.24,WSW,252,0.0,8.0,91,0.00,,,0.00,meteohub,2013-06-18 07:37:00,
2013-06-18 02:42:00,67.5,64.8,29.25,WSW,243,4.0,10.0,91,0.00,,,0.00,meteohub,2013-06-18 07:42:00,
2013-06-18 02:47:00,67.5,64.8,29.25,WSW,240,4.0,10.0,91,0.00,,,0.00,meteohub,2013-06-18 07:47:00,
2013-06-18 02:52:00,67.5,64.8,29.25,WSW,246,4.0,9.0,91,0.00,,,0.00,meteohub,2013-06-18 07:52:00,
2013-06-18 02:57:00,67.5,64.8,29.24,WSW,255,0.0,9.0,91,0.00,,,0.00,meteohub,2013-06-18 07:57:00,
2013-06-18 03:02:00,67.5,65.1,29.25,WSW,237,9.0,9.0,92,0.00,,,0.00,meteohub,2013-06-18 08:02:00,
2013-06-18 03:07:00,67.5,65.1,29.25,WSW,250,0.0,10.0,92,0.00,,,0.00,meteohub,2013-06-18 08:07:00,
2013-06-18 03:12:00,67.5,65.1,29.24,WSW,252,4.0,10.0,92,0.00,,,0.00,meteohub,2013-06-18 08:12:00,
2013-06-18 03:17:00,67.5,65.1,29.25,WSW,246,2.0,10.0,92,0.00,,,0.00,meteohub,2013-06-18 08:17:00,
2013-06-18 03:22:00,67.5,65.1,29.25,WSW,247,2.0,8.0,92,0.00,,,0.00,meteohub,2013-06-18 08:22:00,
2013-06-18 03:27:00,67.5,65.3,29.25,West,269,0.0,8.0,93,0.00,,,0.00,meteohub,2013-06-18 08:27:00,
2013-06-18 03:32:00,67.5,65.3,29.24,WSW,252,1.0,8.0,93,0.00,,,0.00,meteohub,2013-06-18 08:32:00,
2013-06-18 03:37:00,67.5,65.3,29.24,WSW,252,0.0,10.0,93,0.00,,,0.00,meteohub,2013-06-18 08:37:00,
2013-06-18 03:42:00,67.5,65.3,29.24,SW,235,0.0,10.0,93,0.00,,,0.00,meteohub,2013-06-18 08:42:00,
2013-06-18 03:47:00,67.3,65.1,29.25,SW,234,0.0,5.0,93,0.00,,,0.00,meteohub,2013-06-18 08:47:00,
2013-06-18 03:52:00,67.3,65.1,29.25,SW,231,4.0,6.0,93,0.00,,,0.00,meteohub,2013-06-18 08:52:00,
2013-06-18 03:57:00,67.3,65.1,29.25,WSW,238,2.0,6.0,93,0.00,,,0.00,meteohub,2013-06-18 08:57:00,
2013-06-18 04:02:00,67.3,65.1,29.25,WSW,257,2.0,7.0,93,0.00,,,0.00,meteohub,2013-06-18 09:02:00,
2013-06-18 04:07:00,67.3,65.1,29.25,WSW,257,0.0,7.0,93,0.00,,,0.00,meteohub,2013-06-18 09:07:00,
2013-06-18 04:12:00,67.3,65.1,29.25,WSW,240,0.0,7.0,93,0.00,,,0.00,meteohub,2013-06-18 09:12:00,
2013-06-18 04:17:00,67.3,65.5,29.25,WSW,246,4.0,7.0,94,0.00,,,0.00,meteohub,2013-06-18 09:17:00,
2013-06-18 04:23:00,67.3,65.5,29.26,WSW,256,4.0,6.0,94,0.00,,,0.00,meteohub,2013-06-18 09:23:00,
2013-06-18 04:28:00,67.1,65.3,29.26,WSW,245,3.0,7.0,94,0.00,,,0.00,meteohub,2013-06-18 09:28:00,
2013-06-18 04:33:00,67.1,65.3,29.26,SW,219,3.0,9.0,94,0.00,,,0.00,meteohub,2013-06-18 09:33:00,
2013-06-18 04:38:00,67.1,65.3,29.26,WSW,252,1.0,9.0,94,0.00,,,0.00,meteohub,2013-06-18 09:38:00,
2013-06-18 04:43:00,66.9,65.1,29.26,WSW,239,7.0,9.0,94,0.00,,,0.00,meteohub,2013-06-18 09:43:00,
2013-06-18 04:48:00,67.1,65.3,29.27,SSW,209,5.0,9.0,94,0.00,,,0.00,meteohub,2013-06-18 09:48:00,
2013-06-18 04:53:00,67.3,65.8,29.27,SW,231,5.0,13.0,95,0.00,,,0.00,meteohub,2013-06-18 09:53:00,
2013-06-18 04:58:00,67.5,66.0,29.27,SW,230,4.0,13.0,95,0.00,,,0.00,meteohub,2013-06-18 09:58:00,
2013-06-18 05:03:00,67.6,66.2,29.28,WSW,237,6.0,11.0,95,0.00,,,0.00,meteohub,2013-06-18 10:03:00,
2013-06-18 05:08:00,67.6,66.2,29.27,West,261,0.0,12.0,95,0.00,,,0.00,meteohub,2013-06-18 10:08:00,
2013-06-18 05:13:00,67.8,66.6,29.27,West,273,5.0,12.0,96,0.00,,,0.00,meteohub,2013-06-18 10:13:00,
2013-06-18 05:18:00,68.2,66.9,29.27,West,278,5.0,12.0,96,0.00,,,0.00,meteohub,2013-06-18 10:18:00,
2013-06-18 05:23:00,68.2,66.9,29.27,West,277,3.0,11.0,96,0.00,,,0.00,meteohub,2013-06-18 10:23:00,
2013-06-18 05:28:00,68.4,67.1,29.27,WSW,256,2.0,9.0,96,0.00,,,0.00,meteohub,2013-06-18 10:28:00,
2013-06-18 05:33:00,68.4,67.1,29.27,WNW,296,4.0,9.0,96,0.00,,,0.00,meteohub,2013-06-18 10:33:00,
2013-06-18 05:38:00,68.4,67.1,29.26,WNW,287,2.0,9.0,96,0.00,,,0.00,meteohub,2013-06-18 10:38:00,
2013-06-18 05:43:00,68.5,67.3,29.27,West,274,2.0,9.0,96,0.00,,,0.00,meteohub,2013-06-18 10:43:00,
2013-06-18 05:48:00,68.5,67.3,29.27,WNW,282,3.0,9.0,96,0.00,,,0.00,meteohub,2013-06-18 10:48:00,
2013-06-18 05:53:00,68.5,67.3,29.27,WNW,290,0.0,7.0,96,0.00,,,0.00,meteohub,2013-06-18 10:53:00,
2013-06-18 05:58:00,68.5,67.3,29.27,NNW,328,2.0,7.0,96,0.00,,,0.00,meteohub,2013-06-18 10:58:00,
2013-06-18 06:03:00,68.5,67.3,29.27,WNW,302,6.0,7.0,96,0.00,,,0.00,meteohub,2013-06-18 11:03:00,
2013-06-18 06:08:00,68.5,67.3,29.28,West,261,4.0,6.0,96,0.00,,,0.00,meteohub,2013-06-18 11:08:00,
2013-06-18 06:13:00,68.7,67.5,29.28,West,271,0.0,9.0,96,0.00,,,0.00,meteohub,2013-06-18 11:13:00,
2013-06-18 06:18:00,68.7,67.5,29.28,West,264,7.0,9.0,96,0.00,,,0.00,meteohub,2013-06-18 11:18:00,
2013-06-18 06:23:00,68.7,67.5,29.28,West,275,4.0,7.0,96,0.00,,,0.00,meteohub,2013-06-18 11:23:00,
2013-06-18 06:28:00,68.7,67.5,29.28,WNW,302,2.0,8.0,96,0.00,,,0.00,meteohub,2013-06-18 11:28:00,
2013-06-18 06:33:00,68.9,68.0,29.28,West,269,0.0,8.0,97,0.00,,,0.00,meteohub,2013-06-18 11:33:00,
2013-06-18 06:38:00,68.9,67.6,29.28,WNW,292,0.0,8.0,96,0.00,,,0.00,meteohub,2013-06-18 11:38:00,
2013-06-18 06:43:00,69.1,68.2,29.28,NW,306,2.0,6.0,97,0.00,,,0.00,meteohub,2013-06-18 11:43:00,
2013-06-18 06:48:00,69.1,68.2,29.28,WSW,255,0.0,7.0,97,0.00,,,0.00,meteohub,2013-06-18 11:48:00,
2013-06-18 06:53:00,69.3,68.4,29.28,West,273,0.0,7.0,97,0.00,,,0.00,meteohub,2013-06-18 11:53:00,
2013-06-18 06:58:00,69.3,68.4,29.28,WNW,296,0.0,7.0,97,0.00,,,0.00,meteohub,2013-06-18 11:58:00,
2013-06-18 07:03:00,69.4,68.5,29.28,WNW,284,4.0,6.0,97,0.00,,,0.00,meteohub,2013-06-18 12:03:00,
2013-06-18 07:08:00,69.4,68.5,29.28,NW,305,3.0,6.0,97,0.00,,,0.00,meteohub,2013-06-18 12:08:00,
2013-06-18 07:13:00,69.8,68.9,29.28,West,274,10.0,10.0,97,0.00,,,0.00,meteohub,2013-06-18 12:13:00,
2013-06-18 07:19:00,69.6,68.4,29.28,NW,305,3.0,6.0,96,0.00,,,0.00,meteohub,2013-06-18 12:19:00,
2013-06-18 07:23:00,70.0,68.7,29.28,WNW,288,3.0,11.0,96,0.00,,,0.00,meteohub,2013-06-18 12:23:00,
2013-06-18 07:29:00,70.2,68.9,29.28,WNW,296,2.0,11.0,96,0.00,,,0.00,meteohub,2013-06-18 12:29:00,
2013-06-18 07:34:00,70.5,69.1,29.28,WNW,296,0.0,11.0,95,0.00,,,0.00,meteohub,2013-06-18 12:34:00,
2013-06-18 07:39:00,71.1,69.6,29.29,NW,323,0.0,5.0,95,0.00,,,0.00,meteohub,2013-06-18 12:39:00,
2013-06-18 07:44:00,71.2,69.1,29.29,NW,322,0.0,5.0,93,0.00,,,0.00,meteohub,2013-06-18 12:44:00,
2013-06-18 07:49:00,71.8,69.1,29.29,NW,305,4.0,7.0,91,0.00,,,0.00,meteohub,2013-06-18 12:49:00,
2013-06-18 07:54:00,72.1,68.7,29.29,NNW,327,2.0,7.0,89,0.00,,,0.00,meteohub,2013-06-18 12:54:00,
2013-06-18 07:59:00,72.9,68.7,29.28,West,265,2.0,7.0,87,0.00,,,0.00,meteohub,2013-06-18 12:59:00,
2013-06-18 08:04:00,73.0,68.2,29.29,NNW,338,0.0,7.0,85,0.00,,,0.00,meteohub,2013-06-18 13:04:00,
2013-06-18 08:09:00,73.6,68.4,29.29,North,355,1.0,7.0,84,0.00,,,0.00,meteohub,2013-06-18 13:09:00,
2013-06-18 08:14:00,73.8,68.0,29.29,NW,314,5.0,7.0,82,0.00,,,0.00,meteohub,2013-06-18 13:14:00,
2013-06-18 08:19:00,73.9,67.8,29.28,NW,316,0.0,7.0,81,0.00,,,0.00,meteohub,2013-06-18 13:19:00,
2013-06-18 08:24:00,74.5,67.5,29.28,North,5,4.0,9.0,79,0.00,,,0.00,meteohub,2013-06-18 13:24:00,
2013-06-18 08:29:00,74.7,67.3,29.29,WNW,290,3.0,9.0,78,0.00,,,0.00,meteohub,2013-06-18 13:29:00,
2013-06-18 08:34:00,75.0,67.6,29.29,NNW,335,0.0,9.0,78,0.00,,,0.00,meteohub,2013-06-18 13:34:00,
2013-06-18 08:39:00,75.6,67.8,29.29,NW,315,0.0,9.0,77,0.00,,,0.00,meteohub,2013-06-18 13:39:00,
2013-06-18 08:44:00,75.9,67.5,29.29,NW,320,3.0,9.0,75,0.00,,,0.00,meteohub,2013-06-18 13:44:00,
2013-06-18 08:49:00,75.9,67.5,29.29,NNW,337,3.0,9.0,75,0.00,,,0.00,meteohub,2013-06-18 13:49:00,
2013-06-18 08:54:00,76.1,67.6,29.29,North,355,1.0,7.0,75,0.00,,,0.00,meteohub,2013-06-18 13:54:00,
2013-06-18 08:59:00,76.5,68.0,29.29,NNW,341,1.0,7.0,75,0.00,,,0.00,meteohub,2013-06-18 13:59:00,
2013-06-18 09:04:00,76.6,67.3,29.28,NNW,342,6.0,6.0,73,0.00,,,0.00,meteohub,2013-06-18 14:04:00,
2013-06-18 09:09:00,76.6,66.2,29.29,NNW,348,4.0,9.0,70,0.00,,,0.00,meteohub,2013-06-18 14:09:00,
2013-06-18 09:14:00,76.8,66.7,29.28,NNW,346,7.0,10.0,71,0.00,,,0.00,meteohub,2013-06-18 14:14:00,
2013-06-18 09:19:00,77.2,67.5,29.28,NNW,344,5.0,11.0,72,0.00,,,0.00,meteohub,2013-06-18 14:19:00,
2013-06-18 09:25:00,77.4,66.4,29.29,NW,311,4.0,11.0,69,0.00,,,0.00,meteohub,2013-06-18 14:25:00,
2013-06-18 09:30:00,77.5,66.6,29.29,NNW,348,4.0,11.0,69,0.00,,,0.00,meteohub,2013-06-18 14:30:00,
2013-06-18 09:35:00,78.1,66.7,29.29,NW,311,7.0,11.0,68,0.00,,,0.00,meteohub,2013-06-18 14:35:00,
2013-06-18 09:40:00,78.4,66.6,29.29,North,350,7.0,11.0,67,0.00,,,0.00,meteohub,2013-06-18 14:40:00,
2013-06-18 09:45:00,78.6,65.8,29.29,NNW,344,3.0,11.0,65,0.00,,,0.00,meteohub,2013-06-18 14:45:00,
2013-06-18 09:50:00,79.2,65.8,29.29,NNW,347,4.0,12.0,64,0.00,,,0.00,meteohub,2013-06-18 14:50:00,
2013-06-18 09:55:00,79.5,66.2,29.29,WNW,294,5.0,12.0,64,0.00,,,0.00,meteohub,2013-06-18 14:55:00,
2013-06-18 10:00:00,79.9,66.6,29.29,NNW,332,10.0,12.0,64,0.00,,,0.00,meteohub,2013-06-18 15:00:00,
2013-06-18 10:05:00,80.1,64.9,29.29,NW,324,0.0,11.0,60,0.00,,,0.00,meteohub,2013-06-18 15:05:00,
2013-06-18 10:10:00,80.4,64.2,29.29,West,271,2.0,11.0,58,0.00,,,0.00,meteohub,2013-06-18 15:10:00,
2013-06-18 10:15:00,80.6,64.0,29.29,NNW,331,6.0,13.0,57,0.00,,,0.00,meteohub,2013-06-18 15:15:00,
2013-06-18 10:20:00,80.6,64.0,29.29,North,355,1.0,13.0,57,0.00,,,0.00,meteohub,2013-06-18 15:20:00,
2013-06-18 10:25:00,81.0,63.9,29.29,NNW,344,2.0,13.0,56,0.00,,,0.00,meteohub,2013-06-18 15:25:00,
2013-06-18 10:30:00,81.1,63.0,29.29,NNW,330,5.0,12.0,54,0.00,,,0.00,meteohub,2013-06-18 15:30:00,
2013-06-18 10:35:00,81.7,63.5,29.29,North,350,7.0,11.0,54,0.00,,,0.00,meteohub,2013-06-18 15:35:00,
2013-06-18 10:40:00,81.7,63.5,29.30,NNW,332,4.0,11.0,54,0.00,,,0.00,meteohub,2013-06-18 15:40:00,
2013-06-18 10:45:00,81.9,63.0,29.30,North,351,5.0,12.0,53,0.00,,,0.00,meteohub,2013-06-18 15:45:00,
2013-06-18 10:50:00,82.4,63.5,29.30,NNW,328,7.0,12.0,53,0.00,,,0.00,meteohub,2013-06-18 15:50:00,
2013-06-18 10:55:00,82.8,61.7,29.30,NNW,336,5.0,14.0,49,0.00,,,0.00,meteohub,2013-06-18 15:55:00,
2013-06-18 11:00:00,83.1,62.1,29.30,North,355,4.0,14.0,49,0.00,,,0.00,meteohub,2013-06-18 16:00:00,
2013-06-18 11:05:00,83.5,62.2,29.30,NNE,18,5.0,14.0,49,0.00,,,0.00,meteohub,2013-06-18 16:05:00,
2013-06-18 11:10:00,83.5,61.7,29.30,North,350,9.0,12.0,48,0.00,,,0.00,meteohub,2013-06-18 16:10:00,
2013-06-18 11:15:00,83.8,60.8,29.29,NNW,344,6.0,12.0,46,0.00,,,0.00,meteohub,2013-06-18 16:15:00,
2013-06-18 11:20:00,83.8,60.3,29.29,North,9,3.0,13.0,45,0.00,,,0.00,meteohub,2013-06-18 16:20:00,
2013-06-18 11:25:00,83.8,61.5,29.30,NNE,12,4.0,13.0,47,0.00,,,0.00,meteohub,2013-06-18 16:25:00,
2013-06-18 11:30:00,84.2,60.6,29.30,WNW,294,12.0,13.0,45,0.00,,,0.00,meteohub,2013-06-18 16:30:00,
2013-06-18 11:35:00,84.4,60.8,29.30,NNW,348,10.0,14.0,45,0.00,,,0.00,meteohub,2013-06-18 16:35:00,
2013-06-18 11:40:00,84.6,59.5,29.30,NNE,20,1.0,14.0,43,0.00,,,0.00,meteohub,2013-06-18 16:40:00,
2013-06-18 11:45:00,84.9,60.6,29.30,NNW,335,4.0,14.0,44,0.00,,,0.00,meteohub,2013-06-18 16:45:00,
2013-06-18 11:50:00,84.9,60.6,29.31,NNW,338,2.0,13.0,44,0.00,,,0.00,meteohub,2013-06-18 16:50:00,
2013-06-18 11:56:00,85.3,59.5,29.30,NNW,340,7.0,13.0,42,0.00,,,0.00,meteohub,2013-06-18 16:56:00,
2013-06-18 12:01:00,85.1,58.8,29.31,NNW,346,3.0,13.0,41,0.00,,,0.00,meteohub,2013-06-18 17:01:00,
2013-06-18 12:06:00,84.7,59.2,29.30,NNW,340,5.0,15.0,42,0.00,,,0.00,meteohub,2013-06-18 17:06:00,
2013-06-18 12:11:00,84.9,60.6,29.30,NNE,21,1.0,15.0,44,0.00,,,0.00,meteohub,2013-06-18 17:11:00,
2013-06-18 12:16:00,84.9,60.6,29.30,WNW,298,10.0,13.0,44,0.00,,,0.00,meteohub,2013-06-18 17:16:00,
2013-06-18 12:21:00,85.1,58.1,29.31,NNE,26,7.0,16.0,40,0.00,,,0.00,meteohub,2013-06-18 17:21:00,
2013-06-18 12:26:00,85.1,56.7,29.30,NNW,338,10.0,16.0,38,0.00,,,0.00,meteohub,2013-06-18 17:26:00,
2013-06-18 12:31:00,84.7,56.3,29.30,North,355,3.0,16.0,38,0.00,,,0.00,meteohub,2013-06-18 17:31:00,
2013-06-18 12:36:00,84.7,59.2,29.30,North,5,9.0,15.0,42,0.00,,,0.00,meteohub,2013-06-18 17:36:00,
2013-06-18 12:41:00,84.7,59.2,29.30,North,0,3.0,16.0,42,0.00,,,0.00,meteohub,2013-06-18 17:41:00,
2013-06-18 12:46:00,84.6,59.5,29.30,NNW,347,9.0,16.0,43,0.00,,,0.00,meteohub,2013-06-18 17:46:00,
2013-06-18 12:51:00,84.6,59.0,29.30,North,5,12.0,16.0,42,0.00,,,0.00,meteohub,2013-06-18 17:51:00,
2013-06-18 12:56:00,84.2,58.6,29.30,NNE,30,10.0,15.0,42,0.00,,,0.00,meteohub,2013-06-18 17:56:00,
2013-06-18 13:01:00,84.0,59.2,29.30,NNE,18,4.0,16.0,43,0.00,,,0.00,meteohub,2013-06-18 18:01:00,
2013-06-18 13:06:00,84.0,57.7,29.30,NNW,345,11.0,16.0,41,0.00,,,0.00,meteohub,2013-06-18 18:06:00,
2013-06-18 13:11:00,83.8,56.3,29.29,NNW,344,5.0,16.0,39,0.00,,,0.00,meteohub,2013-06-18 18:11:00,
2013-06-18 13:16:00,83.8,57.0,29.29,North,10,4.0,13.0,40,0.00,,,0.00,meteohub,2013-06-18 18:16:00,
2013-06-18 13:22:00,83.7,57.4,29.29,NNE,19,6.0,13.0,41,0.00,,,0.00,meteohub,2013-06-18 18:22:00,
2013-06-18 13:26:00,83.5,57.4,29.29,NNW,346,6.0,11.0,41,0.00,,,0.00,meteohub,2013-06-18 18:26:00,
2013-06-18 13:32:00,83.1,57.0,29.29,NNE,15,3.0,12.0,41,0.00,,,0.00,meteohub,2013-06-18 18:32:00,
2013-06-18 13:37:00,83.1,57.6,29.30,North,5,5.0,12.0,42,0.00,,,0.00,meteohub,2013-06-18 18:37:00,
2013-06-18 13:42:00,82.9,60.1,29.30,NW,325,2.0,12.0,46,0.00,,,0.00,meteohub,2013-06-18 18:42:00,
2013-06-18 13:47:00,82.9,60.6,29.30,NW,317,6.0,10.0,47,0.00,,,0.00,meteohub,2013-06-18 18:47:00,
2013-06-18 13:52:00,83.1,61.3,29.30,WNW,294,10.0,10.0,48,0.00,,,0.00,meteohub,2013-06-18 18:52:00,
2013-06-18 13:57:00,83.3,61.0,29.30,NNW,344,5.0,14.0,47,0.00,,,0.00,meteohub,2013-06-18 18:57:00,
2013-06-18 14:02:00,84.0,61.7,29.30,NNW,344,2.0,14.0,47,0.00,,,0.00,meteohub,2013-06-18 19:02:00,
2013-06-18 14:07:00,84.4,60.1,29.30,North,355,5.0,14.0,44,0.00,,,0.00,meteohub,2013-06-18 19:07:00,
2013-06-18 14:12:00,84.4,59.4,29.30,NW,305,0.0,14.0,43,0.00,,,0.00,meteohub,2013-06-18 19:12:00,
2013-06-18 14:17:00,84.0,58.5,29.30,NW,324,5.0,13.0,42,0.00,,,0.00,meteohub,2013-06-18 19:17:00,
2013-06-18 14:22:00,83.8,58.3,29.30,North,9,6.0,10.0,42,0.00,,,0.00,meteohub,2013-06-18 19:22:00,
2013-06-18 14:27:00,84.4,59.4,29.30,North,11,0.0,11.0,43,0.00,,,0.00,meteohub,2013-06-18 19:27:00,
2013-06-18 14:32:00,84.6,59.5,29.30,North,350,0.0,11.0,43,0.00,,,0.00,meteohub,2013-06-18 19:32:00,
2013-06-18 14:37:00,84.4,59.4,29.30,NW,307,0.0,11.0,43,0.00,,,0.00,meteohub,2013-06-18 19:37:00,
2013-06-18 14:42:00,84.0,58.5,29.30,NW,309,0.0,10.0,42,0.00,,,0.00,meteohub,2013-06-18 19:42:00,
2013-06-18 14:47:00,83.8,58.3,29.30,North,0,3.0,9.0,42,0.00,,,0.00,meteohub,2013-06-18 19:47:00,
2013-06-18 14:52:00,83.5,57.9,29.30,North,350,5.0,7.0,42,0.00,,,0.00,meteohub,2013-06-18 19:52:00,
2013-06-18 14:57:00,83.1,58.3,29.30,NNW,334,7.0,7.0,43,0.00,,,0.00,meteohub,2013-06-18 19:57:00,
2013-06-18 15:02:00,82.9,60.1,29.31,NNE,22,4.0,9.0,46,0.00,,,0.00,meteohub,2013-06-18 20:02:00,
2013-06-18 15:07:00,82.9,60.1,29.31,North,355,5.0,9.0,46,0.00,,,0.00,meteohub,2013-06-18 20:07:00,
2013-06-18 15:12:00,82.6,61.5,29.31,NNW,334,3.0,9.0,49,0.00,,,0.00,meteohub,2013-06-18 20:12:00,
2013-06-18 15:17:00,82.4,61.3,29.30,NW,317,5.0,9.0,49,0.00,,,0.00,meteohub,2013-06-18 20:17:00,
2013-06-18 15:22:00,82.2,61.2,29.31,WNW,299,5.0,9.0,49,0.00,,,0.00,meteohub,2013-06-18 20:22:00,
2013-06-18 15:27:00,81.9,61.3,29.30,NNW,332,0.0,7.0,50,0.00,,,0.00,meteohub,2013-06-18 20:27:00,
2013-06-18 15:32:00,81.9,61.3,29.30,NW,306,3.0,7.0,50,0.00,,,0.00,meteohub,2013-06-18 20:32:00,
2013-06-18 15:37:00,82.2,61.2,29.30,NW,311,6.0,7.0,49,0.00,,,0.00,meteohub,2013-06-18 20:37:00,
2013-06-18 15:42:00,82.8,61.0,29.30,NNW,333,1.0,11.0,48,0.00,,,0.00,meteohub,2013-06-18 20:42:00,
2013-06-18 15:47:00,83.1,60.3,29.30,North,9,0.0,11.0,46,0.00,,,0.00,meteohub,2013-06-18 20:47:00,
2013-06-18 15:52:00,83.3,60.4,29.30,NNW,337,3.0,12.0,46,0.00,,,0.00,meteohub,2013-06-18 20:52:00,
2013-06-18 15:57:00,83.5,60.4,29.30,North,355,6.0,12.0,46,0.00,,,0.00,meteohub,2013-06-18 20:57:00,
2013-06-18 16:02:00,83.5,61.2,29.29,NNW,338,12.0,12.0,47,0.00,,,0.00,meteohub,2013-06-18 21:02:00,
2013-06-18 16:07:00,83.5,60.4,29.29,NNW,333,3.0,13.0,46,0.00,,,0.00,meteohub,2013-06-18 21:07:00,
2013-06-18 16:13:00,83.5,59.4,29.29,North,355,3.0,13.0,44,0.00,,,0.00,meteohub,2013-06-18 21:13:00,
2013-06-18 16:18:00,83.3,59.7,29.29,North,350,5.0,13.0,45,0.00,,,0.00,meteohub,2013-06-18 21:18:00,
2013-06-18 16:23:00,83.1,59.5,29.29,NNW,329,11.0,12.0,45,0.00,,,0.00,meteohub,2013-06-18 21:23:00,
2013-06-18 16:28:00,82.9,58.1,29.29,North,355,7.0,13.0,43,0.00,,,0.00,meteohub,2013-06-18 21:28:00,
2013-06-18 16:33:00,82.9,58.8,29.29,NNW,328,6.0,13.0,44,0.00,,,0.00,meteohub,2013-06-18 21:33:00,
2013-06-18 16:38:00,83.1,60.3,29.29,North,0,9.0,13.0,46,0.00,,,0.00,meteohub,2013-06-18 21:38:00,
2013-06-18 16:43:00,83.1,59.5,29.29,NW,311,3.0,12.0,45,0.00,,,0.00,meteohub,2013-06-18 21:43:00,
2013-06-18 16:48:00,83.3,57.7,29.29,North,5,7.0,12.0,42,0.00,,,0.00,meteohub,2013-06-18 21:48:00,
2013-06-18 16:53:00,83.1,58.3,29.29,North,5,10.0,12.0,43,0.00,,,0.00,meteohub,2013-06-18 21:53:00,
2013-06-18 16:58:00,83.1,57.6,29.29,NW,320,3.0,11.0,42,0.00,,,0.00,meteohub,2013-06-18 21:58:00,
2013-06-18 17:03:00,83.5,57.9,29.28,NNE,19,6.0,11.0,42,0.00,,,0.00,meteohub,2013-06-18 22:03:00,
2013-06-18 17:08:00,83.7,58.8,29.28,NNW,344,0.0,11.0,43,0.00,,,0.00,meteohub,2013-06-18 22:08:00,
2013-06-18 17:13:00,83.8,58.3,29.28,NNW,344,5.0,9.0,42,0.00,,,0.00,meteohub,2013-06-18 22:13:00,
2013-06-18 17:18:00,83.8,59.0,29.28,NW,308,3.0,7.0,43,0.00,,,0.00,meteohub,2013-06-18 22:18:00,
2013-06-18 17:23:00,84.0,59.2,29.28,West,267,2.0,7.0,43,0.00,,,0.00,meteohub,2013-06-18 22:23:00,
2013-06-18 17:28:00,83.8,59.5,29.28,NW,326,3.0,7.0,44,0.00,,,0.00,meteohub,2013-06-18 22:28:00,
2013-06-18 17:33:00,83.7,59.4,29.28,NW,324,1.0,12.0,44,0.00,,,0.00,meteohub,2013-06-18 22:33:00,
2013-06-18 17:38:00,83.7,60.1,29.28,North,355,2.0,12.0,45,0.00,,,0.00,meteohub,2013-06-18 22:38:00,
2013-06-18 17:43:00,83.8,60.3,29.28,NNW,339,4.0,12.0,45,0.00,,,0.00,meteohub,2013-06-18 22:43:00,
2013-06-18 17:48:00,83.7,60.6,29.27,NNW,340,0.0,9.0,46,0.00,,,0.00,meteohub,2013-06-18 22:48:00,
2013-06-18 17:54:00,83.7,60.6,29.27,NE,49,0.0,9.0,46,0.00,,,0.00,meteohub,2013-06-18 22:54:00,
2013-06-18 17:59:00,83.5,60.4,29.27,NW,320,4.0,7.0,46,0.00,,,0.00,meteohub,2013-06-18 22:59:00,
2013-06-18 18:04:00,83.5,60.4,29.27,NW,320,0.0,6.0,46,0.00,,,0.00,meteohub,2013-06-18 23:04:00,
2013-06-18 18:09:00,83.5,60.4,29.27,NNE,15,0.0,7.0,46,0.00,,,0.00,meteohub,2013-06-18 23:09:00,
2013-06-18 18:14:00,83.1,60.8,29.28,NNE,14,4.0,7.0,47,0.00,,,0.00,meteohub,2013-06-18 23:14:00,
2013-06-18 18:19:00,83.1,61.3,29.28,NNW,346,0.0,5.0,48,0.00,,,0.00,meteohub,2013-06-18 23:19:00,
2013-06-18 18:24:00,82.9,61.9,29.27,North,5,0.0,8.0,49,0.00,,,0.00,meteohub,2013-06-18 23:24:00,
2013-06-18 18:29:00,82.9,62.4,29.27,North,5,0.0,8.0,50,0.00,,,0.00,meteohub,2013-06-18 23:29:00,
2013-06-18 18:34:00,83.3,62.8,29.27,NNE,22,0.0,8.0,50,0.00,,,0.00,meteohub,2013-06-18 23:34:00,
2013-06-18 18:39:00,83.5,63.5,29.28,NNE,13,0.0,6.0,51,0.00,,,0.00,meteohub,2013-06-18 23:39:00,
2013-06-18 18:44:00,83.3,63.3,29.28,NE,44,0.0,6.0,51,0.00,,,0.00,meteohub,2013-06-18 23:44:00,
2013-06-18 18:49:00,83.1,63.7,29.28,NNE,33,3.0,6.0,52,0.00,,,0.00,meteohub,2013-06-18 23:49:00,
2013-06-18 18:54:00,82.9,64.0,29.29,East,82,1.0,6.0,53,0.00,,,0.00,meteohub,2013-06-18 23:54:00,
2013-06-18 18:59:00,82.8,64.4,29.28,NE,34,2.0,4.0,54,0.00,,,0.00,meteohub,2013-06-18 23:59:00,
2013-06-18 19:04:00,82.2,63.3,29.29,NNE,33,0.0,6.0,53,0.00,,,0.00,meteohub,2013-06-19 00:04:00,
2013-06-18 19:09:00,82.0,63.7,29.28,NE,50,2.0,9.0,54,0.00,,,0.00,meteohub,2013-06-19 00:09:00,
2013-06-18 19:14:00,82.0,63.1,29.29,NNE,31,0.0,9.0,53,0.00,,,0.00,meteohub,2013-06-19 00:14:00,
2013-06-18 19:19:00,81.9,63.5,29.29,NE,34,4.0,9.0,54,0.00,,,0.00,meteohub,2013-06-19 00:19:00,
2013-06-18 19:24:00,81.7,63.5,29.29,NNE,28,1.0,7.0,54,0.00,,,0.00,meteohub,2013-06-19 00:24:00,
2013-06-18 19:30:00,81.3,63.1,29.29,NNE,24,2.0,7.0,54,0.00,,,0.00,meteohub,2013-06-19 00:30:00,
2013-06-18 19:35:00,81.1,63.0,29.29,NNE,22,3.0,6.0,54,0.00,,,0.00,meteohub,2013-06-19 00:35:00,
2013-06-18 19:40:00,81.1,63.0,29.29,NNE,26,0.0,6.0,54,0.00,,,0.00,meteohub,2013-06-19 00:40:00,
2013-06-18 19:45:00,81.0,62.8,29.29,NNE,26,0.0,7.0,54,0.00,,,0.00,meteohub,2013-06-19 00:45:00,
2013-06-18 19:50:00,80.8,62.6,29.29,NNE,27,2.0,7.0,54,0.00,,,0.00,meteohub,2013-06-19 00:50:00,
2013-06-18 19:55:00,80.8,62.6,29.29,NNE,12,0.0,7.0,54,0.00,,,0.00,meteohub,2013-06-19 00:55:00,
2013-06-18 20:00:00,80.4,62.8,29.29,North,11,0.0,5.0,55,0.00,,,0.00,meteohub,2013-06-19 01:00:00,
2013-06-18 20:05:00,80.2,62.6,29.29,North,10,2.0,5.0,55,0.00,,,0.00,meteohub,2013-06-19 01:05:00,
2013-06-18 20:10:00,80.1,63.0,29.29,NNE,19,0.0,5.0,56,0.00,,,0.00,meteohub,2013-06-19 01:10:00,
2013-06-18 20:15:00,79.9,62.8,29.29,NNE,30,0.0,5.0,56,0.00,,,0.00,meteohub,2013-06-19 01:15:00,
2013-06-18 20:20:00,79.7,63.1,29.29,NNE,15,0.0,5.0,57,0.00,,,0.00,meteohub,2013-06-19 01:20:00,
2013-06-18 20:25:00,79.3,63.3,29.29,NNE,16,0.0,5.0,58,0.00,,,0.00,meteohub,2013-06-19 01:25:00,
2013-06-18 20:30:00,79.2,63.1,29.29,NNE,16,0.0,4.0,58,0.00,,,0.00,meteohub,2013-06-19 01:30:00,
2013-06-18 20:35:00,79.0,63.5,29.29,NNE,16,0.0,2.0,59,0.00,,,0.00,meteohub,2013-06-19 01:35:00,
2013-06-18 20:40:00,78.6,63.5,29.29,NNE,16,0.0,0.0,60,0.00,,,0.00,meteohub,2013-06-19 01:40:00,
2013-06-18 20:45:00,78.4,63.3,29.29,NNE,16,0.0,1.0,60,0.00,,,0.00,meteohub,2013-06-19 01:45:00,
2013-06-18 20:50:00,78.3,63.7,29.29,NNE,21,0.0,1.0,61,0.00,,,0.00,meteohub,2013-06-19 01:50:00,
2013-06-18 20:55:00,77.9,63.3,29.29,NNE,21,0.0,1.0,61,0.00,,,0.00,meteohub,2013-06-19 01:55:00,
2013-06-18 21:01:00,77.5,63.0,29.29,NNE,20,0.0,1.0,61,0.00,,,0.00,meteohub,2013-06-19 02:01:00,
2013-06-18 21:06:00,77.4,63.3,29.30,NNE,20,0.0,1.0,62,0.00,,,0.00,meteohub,2013-06-19 02:06:00,
2013-06-18 21:11:00,77.2,63.1,29.29,NNE,20,0.0,1.0,62,0.00,,,0.00,meteohub,2013-06-19 02:11:00,
2013-06-18 21:16:00,77.0,63.5,29.30,NNE,21,0.0,1.0,63,0.00,,,0.00,meteohub,2013-06-19 02:16:00,
2013-06-18 21:21:00,76.8,63.3,29.30,NNE,20,0.0,1.0,63,0.00,,,0.00,meteohub,2013-06-19 02:21:00,
2013-06-18 21:26:00,76.6,63.5,29.30,NNE,20,0.0,1.0,64,0.00,,,0.00,meteohub,2013-06-19 02:26:00,
2013-06-18 21:31:00,76.6,64.0,29.30,NNE,20,0.0,1.0,65,0.00,,,0.00,meteohub,2013-06-19 02:31:00,
2013-06-18 21:36:00,76.5,63.9,29.30,NNE,20,0.0,1.0,65,0.00,,,0.00,meteohub,2013-06-19 02:36:00,
2013-06-18 21:41:00,76.3,64.0,29.31,NNE,20,0.0,1.0,66,0.00,,,0.00,meteohub,2013-06-19 02:41:00,
2013-06-18 21:46:00,75.9,63.7,29.31,NNE,20,0.0,0.0,66,0.00,,,0.00,meteohub,2013-06-19 02:46:00,
2013-06-18 21:51:00,75.9,63.7,29.31,NNE,20,0.0,0.0,66,0.00,,,0.00,meteohub,2013-06-19 02:51:00,
2013-06-18 21:56:00,75.7,63.5,29.31,NNE,20,0.0,0.0,66,0.00,,,0.00,meteohub,2013-06-19 02:56:00,
2013-06-18 22:01:00,75.6,63.9,29.31,NNE,21,0.0,0.0,67,0.00,,,0.00,meteohub,2013-06-19 03:01:00,
2013-06-18 22:06:00,75.6,64.2,29.31,NNE,21,0.0,0.0,68,0.00,,,0.00,meteohub,2013-06-19 03:06:00,
2013-06-18 22:11:00,75.4,64.0,29.31,NNE,20,0.0,0.0,68,0.00,,,0.00,meteohub,2013-06-19 03:11:00,
2013-06-18 22:16:00,75.2,64.4,29.31,NNE,21,0.0,0.0,69,0.00,,,0.00,meteohub,2013-06-19 03:16:00,
2013-06-18 22:21:00,75.0,64.2,29.31,NNE,21,0.0,0.0,69,0.00,,,0.00,meteohub,2013-06-19 03:21:00,
2013-06-18 22:26:00,74.8,64.0,29.31,NNE,20,0.0,0.0,69,0.00,,,0.00,meteohub,2013-06-19 03:26:00,
2013-06-18 22:31:00,74.7,64.2,29.31,NNE,20,0.0,0.0,70,0.00,,,0.00,meteohub,2013-06-19 03:31:00,
2013-06-18 22:36:00,74.5,64.4,29.31,NNE,20,0.0,0.0,71,0.00,,,0.00,meteohub,2013-06-19 03:36:00,
2013-06-18 22:41:00,74.1,64.6,29.31,NNE,20,0.0,0.0,72,0.00,,,0.00,meteohub,2013-06-19 03:41:00,
2013-06-18 22:46:00,73.9,64.4,29.31,NNE,20,0.0,0.0,72,0.00,,,0.00,meteohub,2013-06-19 03:46:00,
2013-06-18 22:51:00,73.9,64.4,29.31,NNE,20,0.0,0.0,72,0.00,,,0.00,meteohub,2013-06-19 03:51:00,
2013-06-18 22:56:00,73.8,64.6,29.31,NNE,21,0.0,0.0,73,0.00,,,0.00,meteohub,2013-06-19 03:56:00,
2013-06-18 23:01:00,73.6,64.4,29.31,NNE,20,0.0,0.0,73,0.00,,,0.00,meteohub,2013-06-19 04:01:00,
2013-06-18 23:06:00,73.4,64.6,29.31,NNE,20,0.0,0.0,74,0.00,,,0.00,meteohub,2013-06-19 04:06:00,
2013-06-18 23:11:00,73.2,64.8,29.31,NNE,20,0.0,0.0,75,0.00,,,0.00,meteohub,2013-06-19 04:11:00,
2013-06-18 23:17:00,73.0,64.6,29.31,NNE,20,0.0,0.0,75,0.00,,,0.00,meteohub,2013-06-19 04:17:00,
2013-06-18 23:22:00,73.0,64.6,29.32,NNE,20,0.0,0.0,75,0.00,,,0.00,meteohub,2013-06-19 04:22:00,
2013-06-18 23:28:00,72.9,64.4,29.31,NNE,20,0.0,0.0,75,0.00,,,0.00,meteohub,2013-06-19 04:28:00,
2013-06-18 23:33:00,72.7,64.8,29.32,NNE,20,0.0,0.0,76,0.00,,,0.00,meteohub,2013-06-19 04:33:00,
2013-06-18 23:40:00,72.1,64.2,29.32,NE,48,2.0,0.0,76,0.00,,,0.00,meteohub,2013-06-19 04:40:00,
2013-06-18 23:45:00,72.0,64.4,29.32,ENE,78,0.0,4.0,77,0.00,,,0.00,meteohub,2013-06-19 04:45:00,
2013-06-18 23:50:00,71.8,64.6,29.32,ENE,78,0.0,4.0,78,0.00,,,0.00,meteohub,2013-06-19 04:50:00,
2013-06-18 23:55:00,71.6,64.4,29.32,ENE,78,0.0,4.0,78,0.00,,,0.00,meteohub,2013-06-19 04:55:00,